createdAt,value
2019-03-15T00:00:34.538Z,7.77
2019-03-15T00:01:34.596Z,7.83
2019-03-15T00:03:27.582Z,7.88
2019-03-15T00:04:27.630Z,7.87
2019-03-15T00:06:20.617Z,7.87
2019-03-15T00:07:20.675Z,7.94
2019-03-15T00:09:13.647Z,7.95
2019-03-15T00:10:14.273Z,7.82
2019-03-15T00:12:06.686Z,7.94
2019-03-15T00:13:06.737Z,7.90
2019-03-15T00:14:59.712Z,7.95
2019-03-15T00:15:59.776Z,7.95
2019-03-15T00:17:52.752Z,7.85
2019-03-15T00:18:52.800Z,7.79
2019-03-15T00:20:45.779Z,7.80
2019-03-15T00:21:45.851Z,7.77
2019-03-15T00:23:38.822Z,7.87
2019-03-15T00:24:38.869Z,7.85
2019-03-15T00:26:31.865Z,7.82
2019-03-15T00:27:31.910Z,7.83
2019-03-15T00:29:24.887Z,7.80
2019-03-15T00:30:24.945Z,7.87
2019-03-15T00:32:17.928Z,7.83
2019-03-15T00:33:17.978Z,7.85
2019-03-15T00:35:10.954Z,7.80
2019-03-15T00:36:11.009Z,7.82
2019-03-15T00:38:03.994Z,7.79
2019-03-15T00:39:04.046Z,7.70
2019-03-15T00:40:57.021Z,7.72
2019-03-15T00:41:57.075Z,7.67
2019-03-15T00:43:50.079Z,7.67
2019-03-15T00:44:50.111Z,7.75
2019-03-15T00:46:43.086Z,7.77
2019-03-15T00:47:43.147Z,7.70
2019-03-15T00:49:36.145Z,7.72
2019-03-15T00:50:36.173Z,7.79
2019-03-15T00:52:29.181Z,7.77
2019-03-15T00:53:29.231Z,7.77
2019-03-15T00:55:22.224Z,7.88
2019-03-15T00:56:22.278Z,7.76
2019-03-15T00:58:15.266Z,7.82
2019-03-15T00:59:15.316Z,7.93
2019-03-15T01:01:08.294Z,7.91
2019-03-15T01:02:08.350Z,7.91
2019-03-15T01:04:01.356Z,7.90
2019-03-15T01:05:01.384Z,7.93
2019-03-15T01:06:54.356Z,8.00
2019-03-15T01:07:54.411Z,7.98
2019-03-15T01:09:47.400Z,7.98
2019-03-15T01:10:47.446Z,8.06
2019-03-15T01:12:40.432Z,8.05
2019-03-15T01:13:40.477Z,7.98
2019-03-15T01:15:33.455Z,7.98
2019-03-15T01:16:33.516Z,8.03
2019-03-15T01:18:26.501Z,7.95
2019-03-15T01:19:26.553Z,7.94
2019-03-15T01:21:19.527Z,7.88
2019-03-15T01:22:19.584Z,7.87
2019-03-15T01:24:12.569Z,7.79
2019-03-15T01:25:12.617Z,7.90
2019-03-15T01:27:05.597Z,7.85
2019-03-15T01:28:05.655Z,7.83
2019-03-15T01:29:58.636Z,7.85
2019-03-15T01:30:58.685Z,7.97
2019-03-15T01:32:51.673Z,7.85
2019-03-15T01:33:51.760Z,7.93
2019-03-15T01:35:44.691Z,8.03
2019-03-15T01:36:44.762Z,7.95
2019-03-15T01:38:37.741Z,8.03
2019-03-15T01:39:37.788Z,8.01
2019-03-15T01:41:30.766Z,8.06
2019-03-15T01:42:30.821Z,8.01
2019-03-15T01:44:23.811Z,8.01
2019-03-15T01:45:23.856Z,8.00
2019-03-15T01:47:18.362Z,8.06
2019-03-15T01:48:18.421Z,8.06
2019-03-15T01:50:11.403Z,8.16
2019-03-15T01:51:11.450Z,8.12
2019-03-15T01:53:04.438Z,8.16
2019-03-15T01:54:04.485Z,8.18
2019-03-15T01:55:57.473Z,8.23
2019-03-15T01:56:57.534Z,8.16
2019-03-15T01:58:50.516Z,8.13
2019-03-15T01:59:50.566Z,8.16
2019-03-15T02:01:43.557Z,8.15
2019-03-15T02:02:43.603Z,8.13
2019-03-15T02:04:36.590Z,8.20
2019-03-15T02:05:36.635Z,8.13
2019-03-15T02:07:29.609Z,8.15
2019-03-15T02:08:29.665Z,8.10
2019-03-15T02:10:22.694Z,8.12
2019-03-15T02:11:22.699Z,8.20
2019-03-15T02:13:15.686Z,8.27
2019-03-15T02:14:15.744Z,8.13
2019-03-15T02:16:08.835Z,8.15
2019-03-15T02:17:08.783Z,8.24
2019-03-15T02:19:01.764Z,8.18
2019-03-15T02:20:01.861Z,8.16
2019-03-15T02:21:54.808Z,8.12
2019-03-15T02:22:54.858Z,8.10
2019-03-15T02:24:47.843Z,8.12
2019-03-15T02:25:47.893Z,8.09
2019-03-15T02:27:40.891Z,8.20
2019-03-15T02:28:40.947Z,8.18
2019-03-15T02:30:45.562Z,8.12
2019-03-15T02:31:47.059Z,8.15
2019-03-15T02:33:38.609Z,8.09
2019-03-15T02:34:38.654Z,8.06
2019-03-15T02:36:31.634Z,8.10
2019-03-15T02:37:31.689Z,8.12
2019-03-15T02:39:24.680Z,8.05
2019-03-15T02:40:24.719Z,8.00
2019-03-15T02:42:17.715Z,8.05
2019-03-15T02:43:19.105Z,7.98
2019-03-15T02:45:10.777Z,8.01
2019-03-15T02:46:10.835Z,7.98
2019-03-15T02:48:03.812Z,7.94
2019-03-15T02:49:03.863Z,7.93
2019-03-15T02:50:56.882Z,7.93
2019-03-15T02:51:56.895Z,7.95
2019-03-15T02:53:49.934Z,7.88
2019-03-15T02:54:49.923Z,7.87
2019-03-15T02:56:42.904Z,8.05
2019-03-15T02:57:42.973Z,8.01
2019-03-15T02:59:36.138Z,8.12
2019-03-15T03:00:35.999Z,8.10
2019-03-15T03:02:28.978Z,8.12
2019-03-15T03:03:29.032Z,8.13
2019-03-15T03:05:22.027Z,8.08
2019-03-15T03:06:22.063Z,8.09
2019-03-15T03:08:15.041Z,8.06
2019-03-15T03:09:15.099Z,8.05
2019-03-15T03:11:08.085Z,8.06
2019-03-15T03:12:08.138Z,8.12
2019-03-15T03:14:01.128Z,8.12
2019-03-15T03:15:01.185Z,8.10
2019-03-15T03:16:54.146Z,8.15
2019-03-15T03:17:54.211Z,8.16
2019-03-15T03:19:47.188Z,8.18
2019-03-15T03:20:48.189Z,8.18
2019-03-15T03:22:40.211Z,8.10
2019-03-15T03:23:40.267Z,8.19
2019-03-15T03:25:33.251Z,8.18
2019-03-15T03:26:33.301Z,8.06
2019-03-15T03:28:27.336Z,8.09
2019-03-15T03:29:26.329Z,8.00
2019-03-15T03:31:19.833Z,8.08
2019-03-15T03:32:19.879Z,8.08
2019-03-15T03:34:13.104Z,8.18
2019-03-15T03:35:12.920Z,8.12
2019-03-15T03:37:05.890Z,8.05
2019-03-15T03:38:05.965Z,8.12
2019-03-15T03:39:58.941Z,8.09
2019-03-15T03:40:58.990Z,8.10
2019-03-15T03:42:51.983Z,8.10
2019-03-15T03:43:52.027Z,8.12
2019-03-15T03:45:45.006Z,8.12
2019-03-15T03:46:45.054Z,8.09
2019-03-15T03:48:38.034Z,8.06
2019-03-15T03:49:38.086Z,8.08
2019-03-15T03:51:31.071Z,8.10
2019-03-15T03:52:31.120Z,8.08
2019-03-15T03:54:24.101Z,8.05
2019-03-15T03:55:24.152Z,8.12
2019-03-15T03:57:17.152Z,8.15
2019-03-15T03:58:17.189Z,8.13
2019-03-15T04:00:10.177Z,8.09
2019-03-15T04:01:10.220Z,8.13
2019-03-15T04:03:03.200Z,8.06
2019-03-15T04:04:03.257Z,8.05
2019-03-15T04:05:56.250Z,8.10
2019-03-15T04:06:56.290Z,8.12
2019-03-15T04:08:49.268Z,8.10
2019-03-15T04:09:49.333Z,8.06
2019-03-15T04:11:54.934Z,8.12
2019-03-15T04:12:42.363Z,8.06
2019-03-15T04:14:35.371Z,8.18
2019-03-15T04:15:35.428Z,7.98
2019-03-15T04:17:28.414Z,8.06
2019-03-15T04:18:28.470Z,8.01
2019-03-15T04:20:21.474Z,7.98
2019-03-15T04:21:21.496Z,7.98
2019-03-15T04:23:14.472Z,8.00
2019-03-15T04:24:14.527Z,8.01
2019-03-15T04:26:07.517Z,7.97
2019-03-15T04:27:07.563Z,8.03
2019-03-15T04:29:00.560Z,8.08
2019-03-15T04:30:00.605Z,7.97
2019-03-15T04:31:53.587Z,7.98
2019-03-15T04:32:53.636Z,7.95
2019-03-15T04:34:46.616Z,7.97
2019-03-15T04:35:46.670Z,8.01
2019-03-15T04:37:39.658Z,8.05
2019-03-15T04:38:39.703Z,8.05
2019-03-15T04:40:44.372Z,8.09
2019-03-15T04:41:44.390Z,8.12
2019-03-15T04:43:37.361Z,8.13
2019-03-15T04:44:37.423Z,8.16
2019-03-15T04:46:30.403Z,8.20
2019-03-15T04:47:30.449Z,8.12
2019-03-15T04:49:23.430Z,8.16
2019-03-15T04:50:23.486Z,8.10
2019-03-15T04:52:16.479Z,8.13
2019-03-15T04:53:16.525Z,8.15
2019-03-15T04:55:09.504Z,8.15
2019-03-15T04:56:09.565Z,8.15
2019-03-15T04:58:02.565Z,8.20
2019-03-15T04:59:02.594Z,8.18
2019-03-15T05:00:55.575Z,8.15
2019-03-15T05:01:55.629Z,8.20
2019-03-15T05:03:48.620Z,8.26
2019-03-15T05:04:48.664Z,8.23
2019-03-15T05:06:41.669Z,8.24
2019-03-15T05:07:41.816Z,8.27
2019-03-15T05:09:34.765Z,8.19
2019-03-15T05:10:34.750Z,8.12
2019-03-15T05:12:27.740Z,8.10
2019-03-15T05:13:27.906Z,8.10
2019-03-15T05:15:20.761Z,8.13
2019-03-15T05:16:20.820Z,8.12
2019-03-15T05:18:13.807Z,8.12
2019-03-15T05:19:13.853Z,8.12
2019-03-15T05:21:06.830Z,8.08
2019-03-15T05:22:06.888Z,8.08
2019-03-15T05:23:59.876Z,8.18
2019-03-15T05:24:59.925Z,8.05
2019-03-15T05:26:52.909Z,8.06
2019-03-15T05:27:52.965Z,8.03
2019-03-15T05:29:45.965Z,8.01
2019-03-15T05:30:46.002Z,8.03
2019-03-15T05:32:38.987Z,8.00
2019-03-15T05:33:39.029Z,8.09
2019-03-15T05:35:32.013Z,8.08
2019-03-15T05:36:32.064Z,8.12
2019-03-15T05:38:25.043Z,8.12
2019-03-15T05:39:25.099Z,8.18
2019-03-15T05:41:19.575Z,8.18
2019-03-15T05:42:19.628Z,8.18
2019-03-15T05:44:12.634Z,8.18
2019-03-15T05:45:12.757Z,8.18
2019-03-15T05:47:05.658Z,8.26
2019-03-15T05:48:05.704Z,8.15
2019-03-15T05:49:58.712Z,8.24
2019-03-15T05:50:58.758Z,8.24
2019-03-15T05:52:51.739Z,8.19
2019-03-15T05:53:51.790Z,8.23
2019-03-15T05:55:44.764Z,8.13
2019-03-15T05:56:44.822Z,8.13
2019-03-15T05:58:37.848Z,8.19
2019-03-15T05:59:37.849Z,8.18
2019-03-15T06:01:30.825Z,8.23
2019-03-15T06:02:30.880Z,8.16
2019-03-15T06:04:23.864Z,8.20
2019-03-15T06:05:23.913Z,8.18
2019-03-15T06:07:16.893Z,8.26
2019-03-15T06:08:16.946Z,8.18
2019-03-15T06:10:09.923Z,8.24
2019-03-15T06:11:09.977Z,8.20
2019-03-15T06:13:02.960Z,8.08
2019-03-15T06:14:03.006Z,8.16
2019-03-15T06:15:55.987Z,8.30
2019-03-15T06:16:56.039Z,8.27
2019-03-15T06:18:49.153Z,8.28
2019-03-15T06:19:49.085Z,8.28
2019-03-15T06:21:42.067Z,8.27
2019-03-15T06:22:42.125Z,8.26
2019-03-15T06:24:35.114Z,8.30
2019-03-15T06:25:35.187Z,8.31
2019-03-15T06:27:31.003Z,8.28
2019-03-15T06:28:28.197Z,8.30
2019-03-15T06:30:21.178Z,8.34
2019-03-15T06:31:21.227Z,8.31
2019-03-15T06:33:14.231Z,8.34
2019-03-15T06:34:14.287Z,8.34
2019-03-15T06:36:18.923Z,8.41
2019-03-15T06:37:18.956Z,8.31
2019-03-15T06:39:11.944Z,8.34
2019-03-15T06:40:13.624Z,8.41
2019-03-15T06:42:04.969Z,8.34
2019-03-15T06:43:05.024Z,8.45
2019-03-15T06:44:58.397Z,8.42
2019-03-15T06:45:58.078Z,8.37
2019-03-15T06:47:51.035Z,8.28
2019-03-15T06:48:51.098Z,8.41
2019-03-15T06:50:44.078Z,8.42
2019-03-15T06:51:44.126Z,8.42
2019-03-15T06:53:37.097Z,8.34
2019-03-15T06:54:37.166Z,8.34
2019-03-15T06:56:30.136Z,8.44
2019-03-15T06:57:30.187Z,8.44
2019-03-15T06:59:23.189Z,8.45
2019-03-15T07:00:23.241Z,8.42
2019-03-15T07:02:16.243Z,8.48
2019-03-15T07:03:16.302Z,8.42
2019-03-15T07:05:11.793Z,8.46
2019-03-15T07:06:09.347Z,8.44
2019-03-15T07:08:02.391Z,8.51
2019-03-15T07:09:02.387Z,8.52
2019-03-15T07:10:55.370Z,8.48
2019-03-15T07:12:08.647Z,8.48
2019-03-15T07:13:48.799Z,8.51
2019-03-15T07:14:48.497Z,8.55
2019-03-15T07:16:41.455Z,8.55
2019-03-15T07:17:41.861Z,8.56
2019-03-15T07:19:34.492Z,8.48
2019-03-15T07:20:34.536Z,8.61
2019-03-15T07:22:27.532Z,8.63
2019-03-15T07:23:27.581Z,8.64
2019-03-15T07:25:20.575Z,8.66
2019-03-15T07:26:20.618Z,8.61
2019-03-15T07:28:13.602Z,8.58
2019-03-15T07:29:13.638Z,8.58
2019-03-15T07:31:06.619Z,8.69
2019-03-15T07:32:06.672Z,8.76
2019-03-15T07:33:59.649Z,8.73
2019-03-15T07:34:59.705Z,8.73
2019-03-15T07:36:55.367Z,8.70
2019-03-15T07:37:53.251Z,8.73
2019-03-15T07:39:46.241Z,8.78
2019-03-15T07:40:46.542Z,8.74
2019-03-15T07:42:39.291Z,8.70
2019-03-15T07:43:39.321Z,8.60
2019-03-15T07:45:32.314Z,8.63
2019-03-15T07:46:32.357Z,8.69
2019-03-15T07:48:26.930Z,8.60
2019-03-15T07:49:25.389Z,8.60
2019-03-15T07:51:18.375Z,8.58
2019-03-15T07:52:18.428Z,8.66
2019-03-15T07:54:11.421Z,8.64
2019-03-15T07:55:11.503Z,8.67
2019-03-15T07:57:04.467Z,8.66
2019-03-15T07:58:04.511Z,8.66
2019-03-15T07:59:57.491Z,8.74
2019-03-15T08:00:57.543Z,8.69
2019-03-15T08:02:50.591Z,8.67
2019-03-15T08:03:50.578Z,8.66
2019-03-15T08:05:43.568Z,8.61
2019-03-15T08:06:43.609Z,8.67
2019-03-15T08:08:36.692Z,8.74
2019-03-15T08:09:36.642Z,8.58
2019-03-15T08:11:29.629Z,8.55
2019-03-15T08:12:29.677Z,8.58
2019-03-15T08:14:22.674Z,8.60
2019-03-15T08:15:22.728Z,8.60
2019-03-15T08:17:15.722Z,8.63
2019-03-15T08:18:15.779Z,8.64
2019-03-15T08:20:08.738Z,8.73
2019-03-15T08:21:08.798Z,8.76
2019-03-15T08:23:01.789Z,8.73
2019-03-15T08:24:01.832Z,8.70
2019-03-15T08:25:54.812Z,8.78
2019-03-15T08:26:54.864Z,8.84
2019-03-15T08:28:47.863Z,8.82
2019-03-15T08:29:47.904Z,8.78
2019-03-15T08:31:40.906Z,8.79
2019-03-15T08:32:43.389Z,8.69
2019-03-15T08:34:33.939Z,8.76
2019-03-15T08:35:33.994Z,8.71
2019-03-15T08:37:26.987Z,8.73
2019-03-15T08:38:27.042Z,8.70
2019-03-15T08:40:20.017Z,8.70
2019-03-15T08:41:20.067Z,8.69
2019-03-15T08:43:13.049Z,8.69
2019-03-15T08:44:13.099Z,8.73
2019-03-15T08:46:06.089Z,8.73
2019-03-15T08:47:06.138Z,8.73
2019-03-15T08:48:59.173Z,8.70
2019-03-15T08:49:59.165Z,8.74
2019-03-15T08:52:03.449Z,8.78
2019-03-15T08:52:54.126Z,8.73
2019-03-15T08:54:46.626Z,8.73
2019-03-15T08:55:45.264Z,8.67
2019-03-15T08:57:38.241Z,8.78
2019-03-15T08:58:38.300Z,8.79
2019-03-15T09:00:31.286Z,8.78
2019-03-15T09:01:31.334Z,8.74
2019-03-15T09:03:28.201Z,8.74
2019-03-15T09:04:24.400Z,8.69
2019-03-15T09:06:17.350Z,8.56
2019-03-15T09:07:17.428Z,8.60
2019-03-15T09:09:10.459Z,8.73
2019-03-15T09:10:21.728Z,8.74
2019-03-15T09:12:03.425Z,8.69
2019-03-15T09:13:03.475Z,8.74
2019-03-15T09:14:56.452Z,8.74
2019-03-15T09:15:56.508Z,8.71
2019-03-15T09:17:49.494Z,8.82
2019-03-15T09:18:49.544Z,8.79
2019-03-15T09:20:42.518Z,8.87
2019-03-15T09:21:42.572Z,8.88
2019-03-15T09:23:35.553Z,8.82
2019-03-15T09:24:35.607Z,8.92
2019-03-15T09:26:28.581Z,8.92
2019-03-15T09:27:28.668Z,8.92
2019-03-15T09:29:21.619Z,8.89
2019-03-15T09:30:24.123Z,9.03
2019-03-15T09:32:14.664Z,9.04
2019-03-15T09:33:14.704Z,9.06
2019-03-15T09:35:07.699Z,9.04
2019-03-15T09:36:07.955Z,9.14
2019-03-15T09:38:00.722Z,9.10
2019-03-15T09:39:00.772Z,9.10
2019-03-15T09:40:53.773Z,9.22
2019-03-15T09:41:53.826Z,9.19
2019-03-15T09:43:46.831Z,9.21
2019-03-15T09:44:46.864Z,9.22
2019-03-15T09:46:39.828Z,9.26
2019-03-15T09:47:39.886Z,9.32
2019-03-15T09:49:32.875Z,9.39
2019-03-15T09:50:39.899Z,9.36
2019-03-15T09:52:25.917Z,9.40
2019-03-15T09:53:25.955Z,9.51
2019-03-15T09:55:31.820Z,9.55
2019-03-15T09:56:18.989Z,9.55
2019-03-15T09:58:11.988Z,9.64
2019-03-15T09:59:12.026Z,9.64
2019-03-15T10:01:05.309Z,9.72
2019-03-15T10:02:07.705Z,9.72
2019-03-15T10:03:58.051Z,9.73
2019-03-15T10:05:10.089Z,9.83
2019-03-15T10:06:51.082Z,9.86
2019-03-15T10:07:51.170Z,9.91
2019-03-15T10:09:46.217Z,9.84
2019-03-15T10:10:44.234Z,9.95
2019-03-15T10:12:37.176Z,10.02
2019-03-15T10:13:37.228Z,10.02
2019-03-15T10:15:30.238Z,10.07
2019-03-15T10:16:30.246Z,10.07
2019-03-15T10:18:23.230Z,10.13
2019-03-15T10:19:23.285Z,10.13
2019-03-15T10:21:16.262Z,10.19
2019-03-15T10:22:16.324Z,10.25
2019-03-15T10:24:09.315Z,10.26
2019-03-15T10:25:09.356Z,10.33
2019-03-15T10:27:02.382Z,10.34
2019-03-15T10:28:02.402Z,10.38
2019-03-15T10:29:55.382Z,10.35
2019-03-15T10:30:55.429Z,10.48
2019-03-15T10:32:48.418Z,10.46
2019-03-15T10:33:50.748Z,10.53
2019-03-15T10:35:41.468Z,10.56
2019-03-15T10:36:41.506Z,10.49
2019-03-15T10:38:34.523Z,10.67
2019-03-15T10:39:34.559Z,10.64
2019-03-15T10:41:27.551Z,10.63
2019-03-15T10:42:27.612Z,10.74
2019-03-15T10:44:20.609Z,10.76
2019-03-15T10:45:20.645Z,10.76
2019-03-15T10:47:13.626Z,10.84
2019-03-15T10:48:24.671Z,10.90
2019-03-15T10:50:06.702Z,10.99
2019-03-15T10:51:06.724Z,10.94
2019-03-15T10:52:59.700Z,10.99
2019-03-15T10:53:59.778Z,11.08
2019-03-15T10:56:00.045Z,11.15
2019-03-15T10:56:52.809Z,11.12
2019-03-15T10:58:45.811Z,11.18
2019-03-15T10:59:45.850Z,11.17
2019-03-15T11:01:38.858Z,11.22
2019-03-15T11:02:38.893Z,11.18
2019-03-15T11:04:31.906Z,11.37
2019-03-15T11:05:31.932Z,11.37
2019-03-15T11:07:25.009Z,11.55
2019-03-15T11:08:24.965Z,11.52
2019-03-15T11:10:17.969Z,11.62
2019-03-15T11:11:18.004Z,11.65
2019-03-15T11:13:10.988Z,11.75
2019-03-15T11:14:11.049Z,11.83
2019-03-15T11:16:04.555Z,11.94
2019-03-15T11:17:04.087Z,11.97
2019-03-15T11:18:57.098Z,11.88
2019-03-15T11:19:57.146Z,11.91
2019-03-15T11:21:50.144Z,12.00
2019-03-15T11:22:50.183Z,12.07
2019-03-15T11:24:43.948Z,12.04
2019-03-15T11:25:43.289Z,12.06
2019-03-15T11:27:36.258Z,12.21
2019-03-15T11:28:36.315Z,12.27
2019-03-15T11:30:29.328Z,12.32
2019-03-15T11:31:29.356Z,12.28
2019-03-15T11:33:22.332Z,12.40
2019-03-15T11:34:22.397Z,12.39
2019-03-15T11:36:15.417Z,12.39
2019-03-15T11:37:15.429Z,12.57
2019-03-15T11:39:08.410Z,12.67
2019-03-15T11:40:08.468Z,12.62
2019-03-15T11:42:01.487Z,12.82
2019-03-15T11:43:01.504Z,12.86
2019-03-15T11:44:54.482Z,13.03
2019-03-15T11:45:54.539Z,13.15
2019-03-15T11:48:02.869Z,13.38
2019-03-15T11:48:47.629Z,13.50
2019-03-15T11:50:40.584Z,13.74
2019-03-15T11:51:42.512Z,13.71
2019-03-15T11:53:33.605Z,13.79
2019-03-15T11:54:33.660Z,13.75
2019-03-15T11:56:27.328Z,13.71
2019-03-15T11:57:26.701Z,13.72
2019-03-15T11:59:19.693Z,13.90
2019-03-15T12:00:19.747Z,13.96
2019-03-15T12:02:12.756Z,14.12
2019-03-15T12:03:12.784Z,14.17
2019-03-15T12:05:05.789Z,14.17
2019-03-15T12:06:05.829Z,14.20
2019-03-15T12:07:58.809Z,14.11
2019-03-15T12:08:58.873Z,13.97
2019-03-15T12:10:51.886Z,14.08
2019-03-15T12:11:51.929Z,14.04
2019-03-15T12:13:44.936Z,13.97
2019-03-15T12:14:44.980Z,14.03
2019-03-15T12:16:38.007Z,13.70
2019-03-15T12:17:38.046Z,13.54
2019-03-15T12:19:31.034Z,13.27
2019-03-15T12:20:31.081Z,13.19
2019-03-15T12:22:24.074Z,13.11
2019-03-15T12:23:24.118Z,13.03
2019-03-15T12:25:17.142Z,12.94
2019-03-15T12:26:17.187Z,12.98
2019-03-15T12:28:10.193Z,12.95
2019-03-15T12:29:10.234Z,12.95
2019-03-15T12:31:03.236Z,12.94
2019-03-15T12:32:03.275Z,12.91
2019-03-15T12:33:56.308Z,12.94
2019-03-15T12:34:56.370Z,12.94
2019-03-15T12:36:50.885Z,12.83
2019-03-15T12:37:50.923Z,12.95
2019-03-15T12:39:43.900Z,12.97
2019-03-15T12:40:43.970Z,12.98
2019-03-15T12:42:36.958Z,12.98
2019-03-15T12:43:36.998Z,12.95
2019-03-15T12:45:29.983Z,13.01
2019-03-15T12:46:30.036Z,13.03
2019-03-15T12:48:23.041Z,13.04
2019-03-15T12:49:25.434Z,13.04
2019-03-15T12:51:16.071Z,13.13
2019-03-15T12:52:16.136Z,13.15
2019-03-15T12:54:09.168Z,12.98
2019-03-15T12:55:09.267Z,13.09
2019-03-15T12:57:02.182Z,13.03
2019-03-15T12:58:02.260Z,12.97
2019-03-15T12:59:55.268Z,12.97
2019-03-15T13:00:55.304Z,12.93
2019-03-15T13:02:48.702Z,12.93
2019-03-15T13:03:48.350Z,12.95
2019-03-15T13:05:41.400Z,12.97
2019-03-15T13:06:41.404Z,12.91
2019-03-15T13:08:34.428Z,12.85
2019-03-15T13:09:34.480Z,12.90
2019-03-15T13:11:27.442Z,12.97
2019-03-15T13:12:27.510Z,13.03
2019-03-15T13:14:20.514Z,12.98
2019-03-15T13:15:20.555Z,13.18
2019-03-15T13:17:13.647Z,13.28
2019-03-15T13:18:13.588Z,13.39
2019-03-15T13:20:07.456Z,13.56
2019-03-15T13:21:07.495Z,13.62
2019-03-15T13:23:00.560Z,13.67
2019-03-15T13:24:00.545Z,13.78
2019-03-15T13:25:54.660Z,13.86
2019-03-15T13:27:06.587Z,14.04
2019-03-15T13:28:46.615Z,14.10
2019-03-15T13:29:46.663Z,14.05
2019-03-15T13:31:39.674Z,14.03
2019-03-15T13:32:39.714Z,13.96
2019-03-15T13:34:32.748Z,13.97
2019-03-15T13:35:32.771Z,13.97
2019-03-15T13:37:25.806Z,14.10
2019-03-15T13:38:25.826Z,14.12
2019-03-15T13:40:18.816Z,14.30
2019-03-15T13:41:18.853Z,14.44
2019-03-15T13:43:11.838Z,14.48
2019-03-15T13:44:11.894Z,14.48
2019-03-15T13:46:04.893Z,14.41
2019-03-15T13:47:04.933Z,14.40
2019-03-15T13:48:57.931Z,14.32
2019-03-15T13:49:58.011Z,14.23
2019-03-15T13:51:51.006Z,14.04
2019-03-15T13:52:51.034Z,14.04
2019-03-15T13:54:44.037Z,13.97
2019-03-15T13:55:44.090Z,13.95
2019-03-15T13:57:37.093Z,13.79
2019-03-15T13:58:37.136Z,13.85
2019-03-15T14:00:30.119Z,13.70
2019-03-15T14:01:30.178Z,13.79
2019-03-15T14:03:23.188Z,13.72
2019-03-15T14:04:23.219Z,13.71
2019-03-15T14:06:16.239Z,13.72
2019-03-15T14:07:16.269Z,13.70
2019-03-15T14:09:09.256Z,13.78
2019-03-15T14:10:09.310Z,13.85
2019-03-15T14:12:02.336Z,13.83
2019-03-15T14:13:02.373Z,13.93
2019-03-15T14:14:55.425Z,13.79
2019-03-15T14:15:55.421Z,13.85
2019-03-15T14:17:48.430Z,13.71
2019-03-15T14:18:48.500Z,13.62
2019-03-15T14:20:41.479Z,13.49
2019-03-15T14:21:41.522Z,13.38
2019-03-15T14:23:34.530Z,13.16
2019-03-15T14:24:34.576Z,13.01
2019-03-15T14:26:27.579Z,12.87
2019-03-15T14:27:37.043Z,12.79
2019-03-15T14:29:20.628Z,12.78
2019-03-15T14:30:20.674Z,12.82
2019-03-15T14:32:13.695Z,12.83
2019-03-15T14:33:13.722Z,12.85
2019-03-15T14:35:06.729Z,12.82
2019-03-15T14:36:06.768Z,12.85
2019-03-15T14:37:59.965Z,12.83
2019-03-15T14:38:59.816Z,12.87
2019-03-15T14:40:52.869Z,12.97
2019-03-15T14:41:53.072Z,12.90
2019-03-15T14:43:45.988Z,12.93
2019-03-15T14:44:46.121Z,12.93
2019-03-15T14:46:38.893Z,13.00
2019-03-15T14:47:38.945Z,12.98
2019-03-15T14:49:31.923Z,12.94
2019-03-15T14:50:32.009Z,12.94
2019-03-15T14:52:24.976Z,12.95
2019-03-15T14:53:25.028Z,12.94
2019-03-15T14:55:18.028Z,12.97
2019-03-15T14:56:18.070Z,13.03
2019-03-15T14:58:11.062Z,12.97
2019-03-15T14:59:11.115Z,12.94
2019-03-15T15:01:04.173Z,12.91
2019-03-15T15:02:04.215Z,12.90
2019-03-15T15:03:57.747Z,12.83
2019-03-15T15:04:57.775Z,12.62
2019-03-15T15:06:50.771Z,12.18
2019-03-15T15:07:51.454Z,11.95
2019-03-15T15:09:47.349Z,11.91
2019-03-15T15:10:44.542Z,11.73
2019-03-15T15:12:37.530Z,11.60
2019-03-15T15:13:37.447Z,11.54
2019-03-15T15:15:30.591Z,11.52
2019-03-15T15:16:30.494Z,11.40
2019-03-15T15:18:23.573Z,11.43
2019-03-15T15:19:23.614Z,11.44
2019-03-15T15:21:16.626Z,11.41
2019-03-15T15:22:16.603Z,11.30
2019-03-15T15:24:09.783Z,11.37
2019-03-15T15:25:09.628Z,11.41
2019-03-15T15:27:02.996Z,11.22
2019-03-15T15:28:04.760Z,11.18
2019-03-15T15:29:55.804Z,11.27
2019-03-15T15:30:55.731Z,11.15
2019-03-15T15:32:49.130Z,11.18
2019-03-15T15:33:48.868Z,11.22
2019-03-15T15:35:41.861Z,11.10
2019-03-15T15:36:41.838Z,11.15
2019-03-15T15:38:34.852Z,11.02
2019-03-15T15:39:34.964Z,11.05
2019-03-15T15:41:39.844Z,11.02
2019-03-15T15:42:39.991Z,11.00
2019-03-15T15:44:32.906Z,11.04
2019-03-15T15:45:32.656Z,11.04
2019-03-15T15:47:26.001Z,11.02
2019-03-15T15:48:25.654Z,11.00
2019-03-15T15:50:18.963Z,10.99
2019-03-15T15:51:18.780Z,11.02
2019-03-15T15:53:12.118Z,10.99
2019-03-15T15:54:11.945Z,11.04
2019-03-15T15:56:04.795Z,11.04
2019-03-15T15:57:04.966Z,11.08
2019-03-15T15:58:59.015Z,11.02
2019-03-15T15:59:58.681Z,11.05
2019-03-15T16:01:51.398Z,11.07
2019-03-15T16:02:51.523Z,11.05
2019-03-15T16:04:44.644Z,11.07
2019-03-15T16:07:18.769Z,11.12
2019-03-15T16:08:18.829Z,11.15
2019-03-15T16:10:11.865Z,11.15
2019-03-15T16:11:11.906Z,11.10
2019-03-15T16:13:16.579Z,11.15
2019-03-15T16:14:04.885Z,11.22
2019-03-15T16:15:57.914Z,11.15
2019-03-15T16:16:57.979Z,11.18
2019-03-15T16:18:51.041Z,11.19
2019-03-15T16:19:51.030Z,11.15
2019-03-15T16:21:44.019Z,11.23
2019-03-15T16:22:44.050Z,11.25
2019-03-15T16:24:37.063Z,11.18
2019-03-15T16:25:37.074Z,11.25
2019-03-15T16:27:30.054Z,11.26
2019-03-15T16:28:32.284Z,11.29
2019-03-15T16:30:23.148Z,11.36
2019-03-15T16:31:23.178Z,11.30
2019-03-15T16:33:16.418Z,11.33
2019-03-15T16:34:16.209Z,11.40
2019-03-15T16:36:10.187Z,11.41
2019-03-15T16:37:10.366Z,11.29
2019-03-15T16:39:03.603Z,11.36
2019-03-15T16:40:03.342Z,11.37
2019-03-15T16:41:56.273Z,11.30
2019-03-15T16:42:56.320Z,11.40
2019-03-15T16:44:49.360Z,11.37
2019-03-15T16:45:49.491Z,11.26
2019-03-15T16:47:42.462Z,11.29
2019-03-15T16:48:42.445Z,11.35
2019-03-15T16:50:35.550Z,11.30
2019-03-15T16:51:35.496Z,11.30
2019-03-15T16:53:28.609Z,11.35
2019-03-15T16:54:28.656Z,11.44
2019-03-15T16:56:21.570Z,11.37
2019-03-15T16:57:21.675Z,11.47
2019-03-15T16:59:14.712Z,11.45
2019-03-15T17:00:14.741Z,11.43
2019-03-15T17:02:07.732Z,11.45
2019-03-15T17:03:07.721Z,11.52
2019-03-15T17:05:00.860Z,11.48
2019-03-15T17:06:00.782Z,11.47
2019-03-15T17:07:54.296Z,11.43
2019-03-15T17:08:54.299Z,11.43
2019-03-15T17:10:47.320Z,11.45
2019-03-15T17:11:47.324Z,11.44
2019-03-15T17:13:40.379Z,11.45
2019-03-15T17:14:40.389Z,11.47
2019-03-15T17:16:33.409Z,11.44
2019-03-15T17:17:33.537Z,11.41
2019-03-15T17:19:26.521Z,11.41
2019-03-15T17:20:26.515Z,11.32
2019-03-15T17:22:19.529Z,11.37
2019-03-15T17:23:19.516Z,11.43
2019-03-15T17:25:12.656Z,11.44
2019-03-15T17:26:12.583Z,11.35
2019-03-15T17:28:17.263Z,11.27
2019-03-15T17:29:17.457Z,11.27
2019-03-15T17:31:10.518Z,11.23
2019-03-15T17:32:10.374Z,11.25
2019-03-15T17:34:03.421Z,11.05
2019-03-15T17:35:03.480Z,11.11
2019-03-15T17:37:06.158Z,11.19
2019-03-15T17:37:56.397Z,11.12
2019-03-15T17:39:49.470Z,11.14
2019-03-15T17:40:49.469Z,11.08
2019-03-15T17:42:42.525Z,11.05
2019-03-15T17:43:42.601Z,11.02
2019-03-15T17:45:35.517Z,11.10
2019-03-15T17:46:35.585Z,11.00
2019-03-15T17:48:28.532Z,10.96
2019-03-15T17:49:28.588Z,10.97
2019-03-15T17:51:21.661Z,10.94
2019-03-15T17:52:21.654Z,10.90
2019-03-15T17:54:15.019Z,10.94
2019-03-15T17:55:14.717Z,10.90
2019-03-15T17:57:07.714Z,10.84
2019-03-15T17:58:07.778Z,10.81
2019-03-15T18:00:00.814Z,10.86
2019-03-15T18:01:00.796Z,10.86
2019-03-15T18:02:53.818Z,10.93
2019-03-15T18:03:53.857Z,10.97
2019-03-15T18:05:46.830Z,10.90
2019-03-15T18:06:46.865Z,10.90
2019-03-15T18:08:40.168Z,10.87
2019-03-15T18:09:39.915Z,10.84
2019-03-15T18:11:32.950Z,10.81
2019-03-15T18:12:32.940Z,10.74
2019-03-15T18:14:27.568Z,10.79
2019-03-15T18:15:26.214Z,10.75
2019-03-15T18:17:19.044Z,10.71
2019-03-15T18:18:19.096Z,10.78
2019-03-15T18:20:12.125Z,10.79
2019-03-15T18:21:12.128Z,10.75
2019-03-15T18:23:05.138Z,10.71
2019-03-15T18:24:05.193Z,10.74
2019-03-15T18:25:58.241Z,10.72
2019-03-15T18:26:58.283Z,10.75
2019-03-15T18:28:51.808Z,10.72
2019-03-15T18:29:52.222Z,10.69
2019-03-15T18:31:45.180Z,10.63
2019-03-15T18:32:45.049Z,10.60
2019-03-15T18:34:37.907Z,10.59
2019-03-15T18:35:38.012Z,10.60
2019-03-15T18:37:30.945Z,10.60
2019-03-15T18:43:19.207Z,10.68
2019-03-15T18:44:19.253Z,10.54
2019-03-15T18:53:00.275Z,10.54
2019-03-15T18:54:53.305Z,10.57
2019-03-15T18:55:53.337Z,10.63
2019-03-15T18:57:46.387Z,10.68
2019-03-15T18:58:46.411Z,10.59
2019-03-15T19:00:39.526Z,10.54
2019-03-15T19:01:39.430Z,10.38
2019-03-15T19:03:32.444Z,10.56
2019-03-15T19:04:32.524Z,10.42
2019-03-15T19:06:25.541Z,10.51
2019-03-15T19:07:25.545Z,10.54